FDX430 KSFO-KPDX
Flight info
| Callsign | FDX430 |
|---|---|
| Flight time | 1h 18m |
| Altitude | 34000 |
| Route | TRUKN2 GRTFL MACHU TMBRS4 |
| Aircraft | MD11/H-SDE1E2E3FGHIJ2J3J4J5M1RWXY/LB1D1 |
Departure
| Time | 2026-05-04 03:42 |
|---|---|
| Airport | San Francisco International Airport (KSFO) |
Arrival
| Time | 2026-05-04 05:01 |
|---|---|
| Airport | Portland International Airport (KPDX) |
| Time | Latitude | Longitude | Altitude | Speed | Heading |
|---|---|---|---|---|---|
| 2026-05-04 03:18 | 37.63567 | -122.38710 | 25 ft | 0 kts | 68° |
| 2026-05-04 03:26 | 37.63564 | -122.38720 | 24 ft | 2 kts | 71° |
| 2026-05-04 03:26 | 37.63559 | -122.38740 | 22 ft | 2 kts | 75° |
| 2026-05-04 03:26 | 37.63555 | -122.38760 | 24 ft | 2 kts | 82° |
| 2026-05-04 03:26 | 37.63554 | -122.38781 | 25 ft | 2 kts | 93° |
| 2026-05-04 03:27 | 37.63556 | -122.38801 | 25 ft | 2 kts | 110° |
| 2026-05-04 03:27 | 37.63563 | -122.38819 | 27 ft | 2 kts | 132° |
| 2026-05-04 03:27 | 37.63575 | -122.38833 | 29 ft | 2 kts | 147° |
| 2026-05-04 03:27 | 37.63582 | -122.38838 | 25 ft | 0 kts | 149° |
| 2026-05-04 03:28 | 37.63582 | -122.38839 | 25 ft | 0 kts | 149° |
| 2026-05-04 03:30 | 37.63549 | -122.38815 | 28 ft | 8 kts | 153° |
| 2026-05-04 03:30 | 37.63496 | -122.38827 | 21 ft | 8 kts | 221° |
| 2026-05-04 03:30 | 37.63452 | -122.38890 | 22 ft | 12 kts | 239° |
| 2026-05-04 03:30 | 37.63418 | -122.39015 | 27 ft | 18 kts | 247° |
| 2026-05-04 03:31 | 37.63352 | -122.39158 | 26 ft | 18 kts | 220° |
| 2026-05-04 03:31 | 37.63235 | -122.39148 | 26 ft | 12 kts | 159° |
| 2026-05-04 03:31 | 37.63180 | -122.39174 | 29 ft | 10 kts | 239° |
| 2026-05-04 03:31 | 37.63124 | -122.39257 | 27 ft | 14 kts | 196° |
| 2026-05-04 03:32 | 37.63018 | -122.39219 | 27 ft | 16 kts | 157° |
| 2026-05-04 03:32 | 37.62947 | -122.39144 | 30 ft | 11 kts | 117° |
| 2026-05-04 03:32 | 37.62904 | -122.39041 | 30 ft | 16 kts | 118° |
| 2026-05-04 03:32 | 37.62850 | -122.38915 | 30 ft | 16 kts | 118° |
| 2026-05-04 03:33 | 37.62798 | -122.38790 | 31 ft | 17 kts | 118° |
| 2026-05-04 03:33 | 37.62735 | -122.38640 | 26 ft | 22 kts | 117° |
| 2026-05-04 03:33 | 37.62667 | -122.38479 | 27 ft | 20 kts | 118° |
| 2026-05-04 03:33 | 37.62608 | -122.38338 | 25 ft | 20 kts | 118° |
| 2026-05-04 03:34 | 37.62540 | -122.38177 | 29 ft | 21 kts | 118° |
| 2026-05-04 03:34 | 37.62475 | -122.38021 | 27 ft | 19 kts | 117° |
| 2026-05-04 03:34 | 37.62417 | -122.37877 | 27 ft | 17 kts | 118° |
| 2026-05-04 03:34 | 37.62361 | -122.37748 | 27 ft | 17 kts | 118° |
| 2026-05-04 03:35 | 37.62302 | -122.37608 | 30 ft | 20 kts | 118° |
| 2026-05-04 03:35 | 37.62234 | -122.37447 | 27 ft | 21 kts | 118° |
| 2026-05-04 03:35 | 37.62163 | -122.37278 | 21 ft | 22 kts | 118° |
| 2026-05-04 03:35 | 37.62098 | -122.37120 | 21 ft | 19 kts | 117° |
| 2026-05-04 03:36 | 37.62038 | -122.36977 | 21 ft | 17 kts | 117° |
| 2026-05-04 03:36 | 37.61989 | -122.36859 | 26 ft | 13 kts | 118° |
| 2026-05-04 03:36 | 37.61947 | -122.36759 | 30 ft | 14 kts | 118° |
| 2026-05-04 03:36 | 37.61902 | -122.36652 | 26 ft | 14 kts | 118° |
| 2026-05-04 03:37 | 37.61854 | -122.36537 | 28 ft | 17 kts | 118° |
| 2026-05-04 03:37 | 37.61790 | -122.36385 | 29 ft | 23 kts | 118° |
| 2026-05-04 03:37 | 37.61716 | -122.36208 | 26 ft | 22 kts | 118° |
| 2026-05-04 03:37 | 37.61647 | -122.36043 | 23 ft | 21 kts | 118° |
| 2026-05-04 03:38 | 37.61584 | -122.35895 | 28 ft | 17 kts | 118° |
| 2026-05-04 03:38 | 37.61533 | -122.35773 | 27 ft | 14 kts | 118° |
| 2026-05-04 03:38 | 37.61495 | -122.35697 | 28 ft | 6 kts | 134° |
| 2026-05-04 03:38 | 37.61471 | -122.35680 | 29 ft | 2 kts | 160° |
| 2026-05-04 03:39 | 37.61463 | -122.35678 | 29 ft | 0 kts | 169° |
| 2026-05-04 03:40 | 37.61462 | -122.35678 | 29 ft | 0 kts | 169° |
| 2026-05-04 03:40 | 37.61433 | -122.35683 | 29 ft | 8 kts | 195° |
| 2026-05-04 03:40 | 37.61389 | -122.35751 | 29 ft | 11 kts | 250° |
| 2026-05-04 03:41 | 37.61403 | -122.35838 | 26 ft | 10 kts | 298° |
| 2026-05-04 03:41 | 37.61407 | -122.35848 | 27 ft | 1 kts | 298° |
| 2026-05-04 03:41 | 37.61407 | -122.35849 | 26 ft | 1 kts | 298° |
| 2026-05-04 03:42 | 37.61506 | -122.36083 | 26 ft | 75 kts | 297° |
| 2026-05-04 03:42 | 37.61886 | -122.36990 | 29 ft | 155 kts | 298° |
| 2026-05-04 03:42 | 37.62470 | -122.38326 | 423 ft | 179 kts | 296° |
| 2026-05-04 03:42 | 37.63053 | -122.39678 | 1461 ft | 177 kts | 295° |
| 2026-05-04 03:43 | 37.63649 | -122.41054 | 2406 ft | 179 kts | 296° |
| 2026-05-04 03:43 | 37.64242 | -122.42449 | 3263 ft | 186 kts | 296° |
| 2026-05-04 03:43 | 37.65206 | -122.43724 | 3466 ft | 222 kts | 332° |
| 2026-05-04 03:43 | 37.66793 | -122.44005 | 3625 ft | 246 kts | 10° |
| 2026-05-04 03:44 | 37.68322 | -122.42965 | 3789 ft | 259 kts | 45° |
| 2026-05-04 03:44 | 37.69250 | -122.41002 | 3952 ft | 268 kts | 74° |
| 2026-05-04 03:44 | 37.69609 | -122.38692 | 4659 ft | 267 kts | 82° |
| 2026-05-04 03:44 | 37.69858 | -122.36379 | 5474 ft | 266 kts | 84° |
| 2026-05-04 03:45 | 37.70112 | -122.34093 | 6261 ft | 267 kts | 85° |
| 2026-05-04 03:45 | 37.70394 | -122.31743 | 7053 ft | 268 kts | 84° |
| 2026-05-04 03:45 | 37.70686 | -122.29436 | 7772 ft | 271 kts | 83° |
| 2026-05-04 03:45 | 37.71001 | -122.27075 | 8513 ft | 274 kts | 82° |
| 2026-05-04 03:46 | 37.71536 | -122.24747 | 9215 ft | 280 kts | 66° |
| 2026-05-04 03:46 | 37.72703 | -122.22770 | 9969 ft | 286 kts | 41° |
| 2026-05-04 03:46 | 37.74511 | -122.21543 | 10263 ft | 311 kts | 16° |
| 2026-05-04 03:46 | 37.76745 | -122.21221 | 10414 ft | 336 kts | 2° |
| 2026-05-04 03:47 | 37.79163 | -122.21296 | 10551 ft | 360 kts | 359° |
| 2026-05-04 03:47 | 37.81707 | -122.21470 | 11038 ft | 368 kts | 358° |
| 2026-05-04 03:47 | 37.84284 | -122.21640 | 11758 ft | 373 kts | 359° |
| 2026-05-04 03:47 | 37.86874 | -122.21780 | 12476 ft | 376 kts | 359° |
| 2026-05-04 03:48 | 37.89506 | -122.21892 | 13204 ft | 380 kts | 0° |
| 2026-05-04 03:48 | 37.92162 | -122.21986 | 13910 ft | 384 kts | 0° |
| 2026-05-04 03:48 | 37.94809 | -122.22067 | 14547 ft | 386 kts | 1° |
| 2026-05-04 03:48 | 37.97508 | -122.22143 | 15185 ft | 389 kts | 0° |
| 2026-05-04 03:49 | 38.00232 | -122.22218 | 15827 ft | 393 kts | 1° |
| 2026-05-04 03:49 | 38.02974 | -122.22291 | 16461 ft | 396 kts | 1° |
| 2026-05-04 03:49 | 38.05740 | -122.22365 | 17090 ft | 399 kts | 1° |
| 2026-05-04 03:49 | 38.08526 | -122.22439 | 17705 ft | 402 kts | 1° |
| 2026-05-04 03:50 | 38.11336 | -122.22514 | 18318 ft | 405 kts | 0° |
| 2026-05-04 03:50 | 38.13209 | -122.22564 | 18666 ft | 407 kts | 1° |
| 2026-05-04 03:50 | 38.16056 | -122.22640 | 19181 ft | 410 kts | 1° |
| 2026-05-04 03:50 | 38.18921 | -122.22718 | 19724 ft | 413 kts | 1° |
| 2026-05-04 03:51 | 38.22752 | -122.22820 | 20397 ft | 417 kts | 2° |
| 2026-05-04 03:51 | 38.24717 | -122.22873 | 20740 ft | 419 kts | 2° |
| 2026-05-04 03:51 | 38.27645 | -122.22952 | 21252 ft | 422 kts | 2° |
| 2026-05-04 03:51 | 38.30592 | -122.23031 | 21762 ft | 425 kts | 3° |
| 2026-05-04 03:52 | 38.33557 | -122.23111 | 22278 ft | 427 kts | 3° |
| 2026-05-04 03:52 | 38.36537 | -122.23212 | 22770 ft | 431 kts | 2° |
| 2026-05-04 03:52 | 38.39506 | -122.23427 | 23281 ft | 435 kts | 1° |
| 2026-05-04 03:52 | 38.42537 | -122.23722 | 23737 ft | 438 kts | 0° |
| 2026-05-04 03:53 | 38.45589 | -122.24051 | 24176 ft | 441 kts | 0° |
| 2026-05-04 03:53 | 38.48655 | -122.24387 | 24618 ft | 443 kts | 0° |
| 2026-05-04 03:53 | 38.51728 | -122.24723 | 25123 ft | 444 kts | 0° |
| 2026-05-04 03:53 | 38.54815 | -122.25054 | 25584 ft | 446 kts | 0° |
| 2026-05-04 03:54 | 38.57919 | -122.25383 | 26031 ft | 449 kts | 0° |
| 2026-05-04 03:54 | 38.61040 | -122.25710 | 26464 ft | 451 kts | 0° |
| 2026-05-04 03:54 | 38.64181 | -122.26039 | 26901 ft | 454 kts | 0° |
| 2026-05-04 03:54 | 38.67336 | -122.26369 | 27325 ft | 457 kts | 1° |
| 2026-05-04 03:55 | 38.70516 | -122.26701 | 27688 ft | 460 kts | 0° |
| 2026-05-04 03:55 | 38.73715 | -122.27037 | 28112 ft | 462 kts | 0° |
| 2026-05-04 03:55 | 38.76937 | -122.27375 | 28505 ft | 465 kts | 0° |
| 2026-05-04 03:55 | 38.80169 | -122.27715 | 28899 ft | 468 kts | 0° |
| 2026-05-04 03:56 | 38.83431 | -122.28058 | 29212 ft | 470 kts | 0° |
| 2026-05-04 03:56 | 38.86699 | -122.28403 | 29603 ft | 473 kts | 0° |
| 2026-05-04 03:56 | 38.89981 | -122.28749 | 30076 ft | 473 kts | 360° |
| 2026-05-04 03:56 | 38.93271 | -122.29097 | 30477 ft | 474 kts | 360° |
| 2026-05-04 03:57 | 38.96555 | -122.29445 | 30920 ft | 474 kts | 360° |
| 2026-05-04 03:57 | 38.99843 | -122.29794 | 31338 ft | 474 kts | 359° |
| 2026-05-04 03:57 | 39.03131 | -122.30143 | 31738 ft | 474 kts | 359° |
| 2026-05-04 03:57 | 39.06380 | -122.30488 | 32146 ft | 473 kts | 359° |
| 2026-05-04 03:58 | 39.12923 | -122.31183 | 33050 ft | 471 kts | 359° |
| 2026-05-04 03:58 | 39.16191 | -122.31529 | 33454 ft | 470 kts | 359° |
| 2026-05-04 03:58 | 39.19446 | -122.31875 | 33824 ft | 470 kts | 359° |
| 2026-05-04 03:59 | 39.26013 | -122.32575 | 33925 ft | 473 kts | 359° |
| 2026-05-04 03:59 | 39.32526 | -122.33276 | 33939 ft | 467 kts | 359° |
| 2026-05-04 04:00 | 39.38990 | -122.33967 | 33943 ft | 467 kts | 359° |
| 2026-05-04 04:00 | 39.45464 | -122.34660 | 33941 ft | 467 kts | 360° |
| 2026-05-04 04:01 | 39.51931 | -122.35349 | 33945 ft | 466 kts | 360° |
| 2026-05-04 04:01 | 39.58406 | -122.36046 | 33949 ft | 467 kts | 360° |
| 2026-05-04 04:02 | 39.64878 | -122.36745 | 33944 ft | 465 kts | 0° |
| 2026-05-04 04:02 | 39.71288 | -122.37438 | 33948 ft | 462 kts | 0° |
| 2026-05-04 04:03 | 39.77701 | -122.38129 | 33953 ft | 463 kts | 0° |
| 2026-05-04 04:03 | 39.84082 | -122.38819 | 33950 ft | 463 kts | 0° |
| 2026-05-04 04:04 | 39.90503 | -122.39515 | 33955 ft | 463 kts | 0° |
| 2026-05-04 04:04 | 39.96930 | -122.40213 | 33954 ft | 463 kts | 0° |
| 2026-05-04 04:05 | 40.03354 | -122.40913 | 33952 ft | 463 kts | 0° |
| 2026-05-04 04:05 | 40.09775 | -122.41617 | 33976 ft | 463 kts | 0° |
| 2026-05-04 04:06 | 40.16198 | -122.42321 | 33975 ft | 463 kts | 0° |
| 2026-05-04 04:06 | 40.22629 | -122.43024 | 33975 ft | 464 kts | 359° |
| 2026-05-04 04:07 | 40.29036 | -122.43726 | 33962 ft | 466 kts | 359° |
| 2026-05-04 04:07 | 40.35537 | -122.44439 | 33921 ft | 469 kts | 359° |
| 2026-05-04 04:08 | 40.42016 | -122.45155 | 33936 ft | 465 kts | 359° |
| 2026-05-04 04:08 | 40.48462 | -122.45868 | 33934 ft | 465 kts | 359° |
| 2026-05-04 04:09 | 40.54912 | -122.46579 | 33925 ft | 465 kts | 359° |
| 2026-05-04 04:09 | 40.61339 | -122.47291 | 33940 ft | 463 kts | 358° |
| 2026-05-04 04:10 | 40.67736 | -122.48001 | 33942 ft | 464 kts | 358° |
| 2026-05-04 04:10 | 40.74173 | -122.48716 | 33942 ft | 464 kts | 358° |
| 2026-05-04 04:11 | 40.80594 | -122.49432 | 33968 ft | 463 kts | 358° |
| 2026-05-04 04:11 | 40.87015 | -122.50150 | 33972 ft | 463 kts | 358° |
| 2026-05-04 04:12 | 40.93435 | -122.50871 | 33956 ft | 463 kts | 358° |
| 2026-05-04 04:12 | 40.99872 | -122.51594 | 33970 ft | 465 kts | 358° |
| 2026-05-04 04:13 | 41.06325 | -122.52319 | 33973 ft | 465 kts | 358° |
| 2026-05-04 04:13 | 41.12724 | -122.53039 | 33974 ft | 464 kts | 358° |
| 2026-05-04 04:14 | 41.19153 | -122.53764 | 33977 ft | 463 kts | 358° |
| 2026-05-04 04:14 | 41.25585 | -122.54489 | 33974 ft | 464 kts | 358° |
| 2026-05-04 04:15 | 41.32001 | -122.55215 | 33957 ft | 461 kts | 357° |
| 2026-05-04 04:15 | 41.38372 | -122.55938 | 33954 ft | 458 kts | 357° |
| 2026-05-04 04:16 | 41.44730 | -122.56660 | 33940 ft | 459 kts | 357° |
| 2026-05-04 04:16 | 41.51101 | -122.57382 | 33938 ft | 458 kts | 358° |
| 2026-05-04 04:17 | 41.57450 | -122.57907 | 33935 ft | 456 kts | 359° |
| 2026-05-04 04:17 | 41.63789 | -122.58305 | 33940 ft | 458 kts | 359° |
| 2026-05-04 04:18 | 41.70175 | -122.58701 | 33938 ft | 460 kts | 359° |
| 2026-05-04 04:18 | 41.76577 | -122.59113 | 33948 ft | 461 kts | 359° |
| 2026-05-04 04:19 | 41.82980 | -122.59531 | 33943 ft | 461 kts | 359° |
| 2026-05-04 04:19 | 41.89386 | -122.59952 | 33928 ft | 461 kts | 359° |
| 2026-05-04 04:20 | 41.95793 | -122.60372 | 33932 ft | 461 kts | 359° |
| 2026-05-04 04:20 | 42.02195 | -122.60793 | 33920 ft | 460 kts | 359° |
| 2026-05-04 04:21 | 42.08560 | -122.61212 | 33919 ft | 460 kts | 359° |
| 2026-05-04 04:21 | 42.14952 | -122.61634 | 33899 ft | 459 kts | 359° |
| 2026-05-04 04:22 | 42.21334 | -122.62059 | 33898 ft | 459 kts | 359° |
| 2026-05-04 04:22 | 42.27717 | -122.62485 | 33907 ft | 460 kts | 359° |
| 2026-05-04 04:23 | 42.34095 | -122.62911 | 33904 ft | 457 kts | 359° |
| 2026-05-04 04:23 | 42.40420 | -122.63334 | 33897 ft | 457 kts | 359° |
| 2026-05-04 04:24 | 42.46780 | -122.63760 | 33903 ft | 457 kts | 359° |
| 2026-05-04 04:24 | 42.53132 | -122.64187 | 33895 ft | 456 kts | 358° |
| 2026-05-04 04:25 | 42.59473 | -122.64613 | 33889 ft | 456 kts | 358° |
| 2026-05-04 04:25 | 42.65817 | -122.65041 | 33891 ft | 456 kts | 359° |
| 2026-05-04 04:26 | 42.72165 | -122.65470 | 33884 ft | 457 kts | 359° |
| 2026-05-04 04:26 | 42.78480 | -122.65897 | 33889 ft | 457 kts | 359° |
| 2026-05-04 04:27 | 42.84835 | -122.66328 | 33882 ft | 457 kts | 359° |
| 2026-05-04 04:27 | 42.91186 | -122.66763 | 33884 ft | 457 kts | 359° |
| 2026-05-04 04:28 | 42.97538 | -122.67196 | 33885 ft | 457 kts | 359° |
| 2026-05-04 04:28 | 43.03878 | -122.67628 | 33889 ft | 456 kts | 359° |
| 2026-05-04 04:29 | 43.10205 | -122.68062 | 33879 ft | 456 kts | 0° |
| 2026-05-04 04:29 | 43.16549 | -122.68498 | 33884 ft | 457 kts | 360° |
| 2026-05-04 04:30 | 43.22902 | -122.68933 | 33881 ft | 456 kts | 360° |
| 2026-05-04 04:30 | 43.29249 | -122.69370 | 33859 ft | 457 kts | 0° |
| 2026-05-04 04:31 | 43.35569 | -122.69806 | 33878 ft | 459 kts | 1° |
| 2026-05-04 04:31 | 43.41951 | -122.70247 | 33875 ft | 459 kts | 1° |
| 2026-05-04 04:32 | 43.48322 | -122.70689 | 33868 ft | 459 kts | 1° |
| 2026-05-04 04:32 | 43.54686 | -122.71131 | 33860 ft | 459 kts | 1° |
| 2026-05-04 04:33 | 43.61065 | -122.71574 | 33869 ft | 459 kts | 1° |
| 2026-05-04 04:33 | 43.67445 | -122.72017 | 33862 ft | 459 kts | 1° |
| 2026-05-04 04:34 | 43.73833 | -122.72462 | 33856 ft | 460 kts | 1° |
| 2026-05-04 04:34 | 43.80228 | -122.72908 | 33853 ft | 460 kts | 1° |
| 2026-05-04 04:35 | 43.86617 | -122.73356 | 33842 ft | 460 kts | 1° |
| 2026-05-04 04:35 | 43.89804 | -122.73580 | 33448 ft | 454 kts | 1° |
| 2026-05-04 04:35 | 43.92942 | -122.73804 | 32888 ft | 450 kts | 1° |
| 2026-05-04 04:36 | 43.96057 | -122.74024 | 32322 ft | 447 kts | 1° |
| 2026-05-04 04:36 | 43.99161 | -122.74241 | 31778 ft | 447 kts | 1° |
| 2026-05-04 04:36 | 44.02270 | -122.74458 | 31265 ft | 448 kts | 0° |
| 2026-05-04 04:36 | 44.05383 | -122.74676 | 30743 ft | 449 kts | 0° |
| 2026-05-04 04:37 | 44.14751 | -122.75268 | 29089 ft | 449 kts | 3° |
| 2026-05-04 04:37 | 44.17874 | -122.75155 | 28553 ft | 449 kts | 6° |
| 2026-05-04 04:38 | 44.20996 | -122.74881 | 27993 ft | 449 kts | 7° |
| 2026-05-04 04:38 | 44.23053 | -122.74664 | 27628 ft | 447 kts | 7° |
| 2026-05-04 04:38 | 44.26147 | -122.74321 | 27074 ft | 444 kts | 7° |
| 2026-05-04 04:38 | 44.29220 | -122.73984 | 26547 ft | 442 kts | 7° |
| 2026-05-04 04:39 | 44.33270 | -122.73557 | 25830 ft | 438 kts | 7° |
| 2026-05-04 04:39 | 44.36300 | -122.73248 | 25294 ft | 436 kts | 7° |
| 2026-05-04 04:39 | 44.38339 | -122.73043 | 24932 ft | 434 kts | 7° |
| 2026-05-04 04:39 | 44.41353 | -122.72743 | 24408 ft | 432 kts | 7° |
| 2026-05-04 04:40 | 44.44346 | -122.72446 | 23897 ft | 430 kts | 7° |
| 2026-05-04 04:40 | 44.47286 | -122.72155 | 23492 ft | 427 kts | 7° |
| 2026-05-04 04:40 | 44.50205 | -122.71867 | 23236 ft | 411 kts | 7° |
| 2026-05-04 04:40 | 44.52976 | -122.71597 | 23112 ft | 388 kts | 7° |
| 2026-05-04 04:41 | 44.55611 | -122.71339 | 22926 ft | 375 kts | 7° |
| 2026-05-04 04:41 | 44.58198 | -122.71080 | 22540 ft | 372 kts | 7° |
| 2026-05-04 04:41 | 44.60777 | -122.70817 | 21964 ft | 370 kts | 7° |
| 2026-05-04 04:41 | 44.63329 | -122.70558 | 21390 ft | 365 kts | 6° |
| 2026-05-04 04:42 | 44.65851 | -122.70302 | 20832 ft | 362 kts | 6° |
| 2026-05-04 04:42 | 44.68351 | -122.70049 | 20302 ft | 359 kts | 6° |
| 2026-05-04 04:42 | 44.70832 | -122.69799 | 19745 ft | 355 kts | 6° |
| 2026-05-04 04:42 | 44.73290 | -122.69552 | 19215 ft | 353 kts | 6° |
| 2026-05-04 04:43 | 44.75731 | -122.69306 | 18686 ft | 350 kts | 6° |
| 2026-05-04 04:43 | 44.78154 | -122.69061 | 18156 ft | 348 kts | 6° |
| 2026-05-04 04:43 | 44.80556 | -122.68819 | 17610 ft | 344 kts | 6° |
| 2026-05-04 04:43 | 44.82935 | -122.68580 | 17164 ft | 342 kts | 6° |
| 2026-05-04 04:44 | 44.85311 | -122.68340 | 16673 ft | 342 kts | 5° |
| 2026-05-04 04:44 | 44.87676 | -122.68101 | 16163 ft | 340 kts | 5° |
| 2026-05-04 04:44 | 44.90024 | -122.67865 | 15698 ft | 337 kts | 5° |
| 2026-05-04 04:44 | 44.92350 | -122.67631 | 15419 ft | 334 kts | 5° |
| 2026-05-04 04:45 | 44.94634 | -122.67401 | 15282 ft | 321 kts | 5° |
| 2026-05-04 04:45 | 44.96827 | -122.67181 | 14952 ft | 313 kts | 5° |
| 2026-05-04 04:45 | 44.98997 | -122.66960 | 14440 ft | 312 kts | 5° |
| 2026-05-04 04:47 | 45.11581 | -122.65675 | 11493 ft | 299 kts | 4° |
| 2026-05-04 04:47 | 45.13646 | -122.65464 | 11025 ft | 297 kts | 5° |
| 2026-05-04 04:47 | 45.15703 | -122.65254 | 10556 ft | 295 kts | 4° |
| 2026-05-04 04:47 | 45.17733 | -122.65047 | 10154 ft | 292 kts | 5° |
| 2026-05-04 04:48 | 45.19748 | -122.64841 | 9747 ft | 289 kts | 4° |
| 2026-05-04 04:49 | 45.27286 | -122.62294 | 8500 ft | 282 kts | 31° |
| 2026-05-04 04:49 | 45.28938 | -122.60825 | 8116 ft | 279 kts | 32° |
| 2026-05-04 04:49 | 45.30560 | -122.59347 | 7756 ft | 276 kts | 32° |
| 2026-05-04 04:49 | 45.32169 | -122.57880 | 7381 ft | 274 kts | 32° |
| 2026-05-04 04:50 | 45.33778 | -122.56417 | 7021 ft | 275 kts | 32° |
| 2026-05-04 04:50 | 45.35391 | -122.54954 | 6658 ft | 275 kts | 32° |
| 2026-05-04 04:50 | 45.36982 | -122.53511 | 6271 ft | 273 kts | 32° |
| 2026-05-04 04:50 | 45.38586 | -122.52060 | 6068 ft | 264 kts | 32° |
| 2026-05-04 04:51 | 45.40082 | -122.50702 | 5951 ft | 253 kts | 32° |
| 2026-05-04 04:51 | 45.41554 | -122.49355 | 5885 ft | 252 kts | 34° |
| 2026-05-04 04:51 | 45.42836 | -122.47663 | 5807 ft | 253 kts | 54° |
| 2026-05-04 04:51 | 45.43479 | -122.45347 | 5571 ft | 255 kts | 84° |
| 2026-05-04 04:52 | 45.43206 | -122.42886 | 5306 ft | 253 kts | 111° |
| 2026-05-04 04:52 | 45.42441 | -122.40651 | 5135 ft | 248 kts | 117° |
| 2026-05-04 04:52 | 45.41614 | -122.38523 | 5041 ft | 235 kts | 117° |
| 2026-05-04 04:52 | 45.40859 | -122.36519 | 5014 ft | 233 kts | 116° |
| 2026-05-04 04:53 | 45.40105 | -122.34485 | 5007 ft | 233 kts | 116° |
| 2026-05-04 04:53 | 45.39352 | -122.32440 | 5012 ft | 233 kts | 116° |
| 2026-05-04 04:53 | 45.38609 | -122.30395 | 5008 ft | 232 kts | 112° |
| 2026-05-04 04:53 | 45.38319 | -122.28181 | 4991 ft | 228 kts | 82° |
| 2026-05-04 04:54 | 45.38884 | -122.26132 | 5009 ft | 224 kts | 50° |
| 2026-05-04 04:54 | 45.40122 | -122.24867 | 5008 ft | 222 kts | 17° |
| 2026-05-04 04:54 | 45.41650 | -122.24772 | 5009 ft | 223 kts | 346° |
| 2026-05-04 04:54 | 45.43090 | -122.25604 | 5015 ft | 226 kts | 335° |
| 2026-05-04 04:55 | 45.44477 | -122.26616 | 4719 ft | 223 kts | 327° |
| 2026-05-04 04:55 | 45.45643 | -122.28079 | 4205 ft | 221 kts | 315° |
| 2026-05-04 04:55 | 45.46689 | -122.29689 | 3842 ft | 223 kts | 310° |
| 2026-05-04 04:55 | 45.47556 | -122.31528 | 3482 ft | 224 kts | 302° |
| 2026-05-04 04:56 | 45.48322 | -122.33455 | 3142 ft | 223 kts | 301° |
| 2026-05-04 04:56 | 45.49065 | -122.35362 | 3018 ft | 220 kts | 301° |
| 2026-05-04 04:56 | 45.49801 | -122.37248 | 2997 ft | 210 kts | 301° |
| 2026-05-04 04:56 | 45.50473 | -122.38976 | 2925 ft | 193 kts | 301° |
| 2026-05-04 04:57 | 45.51121 | -122.40633 | 2676 ft | 188 kts | 302° |
| 2026-05-04 04:57 | 45.51754 | -122.42255 | 2462 ft | 187 kts | 302° |
| 2026-05-04 04:57 | 45.52375 | -122.43841 | 2225 ft | 185 kts | 302° |
| 2026-05-04 04:57 | 45.53001 | -122.45443 | 1981 ft | 185 kts | 301° |
| 2026-05-04 04:58 | 45.53622 | -122.47031 | 1744 ft | 176 kts | 302° |
| 2026-05-04 04:58 | 45.54199 | -122.48513 | 1505 ft | 169 kts | 301° |
| 2026-05-04 04:58 | 45.54775 | -122.49985 | 1321 ft | 169 kts | 300° |
| 2026-05-04 04:58 | 45.55348 | -122.51450 | 1136 ft | 169 kts | 300° |
| 2026-05-04 04:59 | 45.55914 | -122.52900 | 927 ft | 167 kts | 298° |
| 2026-05-04 04:59 | 45.56477 | -122.54347 | 678 ft | 166 kts | 300° |
| 2026-05-04 04:59 | 45.57034 | -122.55773 | 472 ft | 163 kts | 299° |
| 2026-05-04 04:59 | 45.57583 | -122.57181 | 265 ft | 161 kts | 299° |
| 2026-05-04 05:00 | 45.58118 | -122.58561 | 52 ft | 153 kts | 299° |
| 2026-05-04 05:00 | 45.58573 | -122.59723 | 36 ft | 114 kts | 299° |
| 2026-05-04 05:00 | 45.59126 | -122.61144 | 36 ft | 64 kts | 299° |
| 2026-05-04 05:01 | 45.59313 | -122.61619 | 33 ft | 49 kts | 299° |
| 2026-05-04 05:01 | 45.59449 | -122.61970 | 35 ft | 32 kts | 299° |
| 2026-05-04 05:01 | 45.59466 | -122.62161 | 37 ft | 16 kts | 227° |
| 2026-05-04 05:01 | 45.59389 | -122.62230 | 36 ft | 8 kts | 208° |
| 2026-05-04 05:02 | 45.59340 | -122.62241 | 36 ft | 7 kts | 171° |
| 2026-05-04 05:02 | 45.59306 | -122.62204 | 35 ft | 6 kts | 127° |
| 2026-05-04 05:02 | 45.59282 | -122.62148 | 36 ft | 7 kts | 120° |
| 2026-05-04 05:02 | 45.59247 | -122.62058 | 36 ft | 15 kts | 119° |
| 2026-05-04 05:03 | 45.59195 | -122.61926 | 36 ft | 15 kts | 119° |
| 2026-05-04 05:03 | 45.59146 | -122.61799 | 36 ft | 14 kts | 118° |
| 2026-05-04 05:04 | 45.58998 | -122.61411 | 36 ft | 15 kts | 112° |
| 2026-05-04 05:04 | 45.58981 | -122.61260 | 36 ft | 16 kts | 90° |
| 2026-05-04 05:04 | 45.58975 | -122.61106 | 35 ft | 16 kts | 100° |
| 2026-05-04 05:06 | 45.58671 | -122.60852 | 34 ft | 12 kts | 225° |
| 2026-05-04 05:06 | 45.58602 | -122.60950 | 35 ft | 16 kts | 225° |
| 2026-05-04 05:06 | 45.58515 | -122.61072 | 35 ft | 19 kts | 225° |
| 2026-05-04 05:07 | 45.58414 | -122.61216 | 34 ft | 22 kts | 225° |
| 2026-05-04 05:07 | 45.58321 | -122.61345 | 35 ft | 16 kts | 215° |
| 2026-05-04 05:07 | 45.58265 | -122.61328 | 34 ft | 8 kts | 136° |
| 2026-05-04 05:09 | 45.57932 | -122.61022 | 35 ft | 0 kts | 224° |